sensor_id;sensor_type;location;lat;lon;timestamp;P1;durP1;ratioP1;P2;durP2;ratioP2
77012;SDS011;67260;53.130;17.982;2023-06-26T00:00:04;4.70;;;3.20;;
77012;SDS011;67260;53.130;17.982;2023-06-26T00:02:32;6.70;;;3.70;;
77012;SDS011;67260;53.130;17.982;2023-06-26T00:04:59;6.50;;;3.90;;
77012;SDS011;67260;53.130;17.982;2023-06-26T00:07:29;8.30;;;4.00;;
77012;SDS011;67260;53.130;17.982;2023-06-26T00:09:57;6.50;;;3.90;;
77012;SDS011;67260;53.130;17.982;2023-06-26T00:12:25;7.70;;;4.00;;
77012;SDS011;67260;53.130;17.982;2023-06-26T00:14:52;7.40;;;4.40;;
77012;SDS011;67260;53.130;17.982;2023-06-26T00:17:19;7.50;;;4.00;;
77012;SDS011;67260;53.130;17.982;2023-06-26T00:19:46;7.50;;;4.10;;
77012;SDS011;67260;53.130;17.982;2023-06-26T00:22:12;8.90;;;5.10;;
77012;SDS011;67260;53.130;17.982;2023-06-26T00:24:40;7.90;;;4.20;;
77012;SDS011;67260;53.130;17.982;2023-06-26T00:27:07;6.20;;;4.00;;
77012;SDS011;67260;53.130;17.982;2023-06-26T00:29:34;7.40;;;4.40;;
77012;SDS011;67260;53.130;17.982;2023-06-26T00:32:01;9.00;;;4.50;;
77012;SDS011;67260;53.130;17.982;2023-06-26T00:34:28;11.50;;;4.40;;
77012;SDS011;67260;53.130;17.982;2023-06-26T00:36:55;9.20;;;4.70;;
77012;SDS011;67260;53.130;17.982;2023-06-26T00:39:21;6.70;;;4.50;;
77012;SDS011;67260;53.130;17.982;2023-06-26T00:41:48;6.80;;;4.20;;
77012;SDS011;67260;53.130;17.982;2023-06-26T00:44:15;7.30;;;4.30;;
77012;SDS011;67260;53.130;17.982;2023-06-26T00:46:41;8.70;;;4.30;;
77012;SDS011;67260;53.130;17.982;2023-06-26T00:49:08;7.60;;;4.60;;
77012;SDS011;67260;53.130;17.982;2023-06-26T00:51:36;8.50;;;4.00;;
77012;SDS011;67260;53.130;17.982;2023-06-26T00:54:02;6.90;;;4.30;;
77012;SDS011;67260;53.130;17.982;2023-06-26T00:56:30;6.50;;;4.40;;
77012;SDS011;67260;53.130;17.982;2023-06-26T00:58:57;7.70;;;4.40;;
77012;SDS011;67260;53.130;17.982;2023-06-26T01:01:26;7.30;;;4.40;;
77012;SDS011;67260;53.130;17.982;2023-06-26T01:03:53;7.00;;;4.40;;
77012;SDS011;67260;53.130;17.982;2023-06-26T01:06:21;8.70;;;4.70;;
77012;SDS011;67260;53.130;17.982;2023-06-26T01:08:50;6.50;;;4.60;;
77012;SDS011;67260;53.130;17.982;2023-06-26T01:11:18;11.30;;;4.60;;
77012;SDS011;67260;53.130;17.982;2023-06-26T01:13:45;7.30;;;4.50;;
77012;SDS011;67260;53.130;17.982;2023-06-26T01:16:12;7.20;;;4.50;;
77012;SDS011;67260;53.130;17.982;2023-06-26T01:18:41;6.20;;;4.40;;
77012;SDS011;67260;53.130;17.982;2023-06-26T01:21:09;7.50;;;4.70;;
77012;SDS011;67260;53.130;17.982;2023-06-26T01:23:43;7.60;;;4.70;;
77012;SDS011;67260;53.130;17.982;2023-06-26T01:26:21;7.90;;;4.70;;
77012;SDS011;67260;53.130;17.982;2023-06-26T01:28:50;8.40;;;5.10;;
77012;SDS011;67260;53.130;17.982;2023-06-26T01:31:19;9.10;;;5.50;;
77012;SDS011;67260;53.130;17.982;2023-06-26T01:33:46;7.40;;;4.30;;
77012;SDS011;67260;53.130;17.982;2023-06-26T01:36:13;8.30;;;4.70;;
77012;SDS011;67260;53.130;17.982;2023-06-26T01:38:40;6.90;;;4.90;;
77012;SDS011;67260;53.130;17.982;2023-06-26T01:41:07;8.30;;;4.80;;
77012;SDS011;67260;53.130;17.982;2023-06-26T01:46:43;8.60;;;4.60;;
77012;SDS011;67260;53.130;17.982;2023-06-26T01:49:14;9.30;;;4.80;;
77012;SDS011;67260;53.130;17.982;2023-06-26T01:51:47;10.50;;;4.90;;
77012;SDS011;67260;53.130;17.982;2023-06-26T01:54:21;8.50;;;4.90;;
77012;SDS011;67260;53.130;17.982;2023-06-26T01:56:50;7.90;;;4.90;;
77012;SDS011;67260;53.130;17.982;2023-06-26T01:59:20;7.90;;;4.60;;
77012;SDS011;67260;53.130;17.982;2023-06-26T02:01:48;8.70;;;5.00;;
77012;SDS011;67260;53.130;17.982;2023-06-26T02:04:15;8.20;;;4.30;;
77012;SDS011;67260;53.130;17.982;2023-06-26T02:06:42;8.20;;;4.70;;
77012;SDS011;67260;53.130;17.982;2023-06-26T02:09:08;6.70;;;4.40;;
77012;SDS011;67260;53.130;17.982;2023-06-26T02:11:35;8.00;;;4.10;;
77012;SDS011;67260;53.130;17.982;2023-06-26T02:14:02;9.00;;;4.70;;
77012;SDS011;67260;53.130;17.982;2023-06-26T02:16:29;8.90;;;5.00;;
77012;SDS011;67260;53.130;17.982;2023-06-26T02:18:56;7.80;;;4.80;;
77012;SDS011;67260;53.130;17.982;2023-06-26T02:21:24;10.00;;;5.40;;
77012;SDS011;67260;53.130;17.982;2023-06-26T02:23:50;9.90;;;5.20;;
77012;SDS011;67260;53.130;17.982;2023-06-26T02:26:17;10.00;;;5.70;;
77012;SDS011;67260;53.130;17.982;2023-06-26T02:28:44;9.50;;;5.40;;
77012;SDS011;67260;53.130;17.982;2023-06-26T02:31:12;8.20;;;5.10;;
77012;SDS011;67260;53.130;17.982;2023-06-26T02:33:38;9.20;;;5.40;;
77012;SDS011;67260;53.130;17.982;2023-06-26T02:36:05;8.90;;;5.20;;
77012;SDS011;67260;53.130;17.982;2023-06-26T02:38:32;9.50;;;5.10;;
77012;SDS011;67260;53.130;17.982;2023-06-26T02:41:01;9.20;;;5.30;;
77012;SDS011;67260;53.130;17.982;2023-06-26T02:43:29;7.80;;;4.80;;
77012;SDS011;67260;53.130;17.982;2023-06-26T02:45:56;10.60;;;5.20;;
77012;SDS011;67260;53.130;17.982;2023-06-26T02:48:22;7.70;;;4.90;;
77012;SDS011;67260;53.130;17.982;2023-06-26T02:50:49;9.70;;;5.00;;
77012;SDS011;67260;53.130;17.982;2023-06-26T02:53:16;10.50;;;5.60;;
77012;SDS011;67260;53.130;17.982;2023-06-26T02:55:44;10.50;;;5.40;;
77012;SDS011;67260;53.130;17.982;2023-06-26T02:58:11;8.90;;;5.10;;
77012;SDS011;67260;53.130;17.982;2023-06-26T03:00:38;9.60;;;5.40;;
77012;SDS011;67260;53.130;17.982;2023-06-26T03:03:08;8.50;;;5.20;;
77012;SDS011;67260;53.130;17.982;2023-06-26T03:05:35;8.20;;;4.90;;
77012;SDS011;67260;53.130;17.982;2023-06-26T03:08:02;9.10;;;5.10;;
77012;SDS011;67260;53.130;17.982;2023-06-26T03:10:29;8.00;;;5.40;;
77012;SDS011;67260;53.130;17.982;2023-06-26T03:12:56;7.60;;;5.10;;
77012;SDS011;67260;53.130;17.982;2023-06-26T03:15:23;8.50;;;5.00;;
77012;SDS011;67260;53.130;17.982;2023-06-26T03:17:50;8.90;;;5.20;;
77012;SDS011;67260;53.130;17.982;2023-06-26T03:22:52;8.30;;;5.00;;
77012;SDS011;67260;53.130;17.982;2023-06-26T03:25:19;10.20;;;5.60;;
77012;SDS011;67260;53.130;17.982;2023-06-26T03:27:46;7.70;;;5.10;;
77012;SDS011;67260;53.130;17.982;2023-06-26T03:30:13;7.90;;;5.00;;
77012;SDS011;67260;53.130;17.982;2023-06-26T03:32:41;11.20;;;5.50;;
77012;SDS011;67260;53.130;17.982;2023-06-26T03:35:08;8.10;;;5.00;;
77012;SDS011;67260;53.130;17.982;2023-06-26T03:37:36;8.70;;;5.50;;
77012;SDS011;67260;53.130;17.982;2023-06-26T03:40:02;8.90;;;5.10;;
77012;SDS011;67260;53.130;17.982;2023-06-26T03:42:31;10.20;;;5.50;;
77012;SDS011;67260;53.130;17.982;2023-06-26T03:44:57;10.70;;;5.90;;
77012;SDS011;67260;53.130;17.982;2023-06-26T03:47:24;8.20;;;5.30;;
77012;SDS011;67260;53.130;17.982;2023-06-26T03:49:51;14.20;;;5.90;;
77012;SDS011;67260;53.130;17.982;2023-06-26T03:52:17;10.30;;;5.60;;
77012;SDS011;67260;53.130;17.982;2023-06-26T03:54:45;8.20;;;5.30;;
77012;SDS011;67260;53.130;17.982;2023-06-26T03:57:12;9.50;;;5.90;;
77012;SDS011;67260;53.130;17.982;2023-06-26T03:59:38;8.40;;;5.20;;
77012;SDS011;67260;53.130;17.982;2023-06-26T04:02:05;8.70;;;6.10;;
77012;SDS011;67260;53.130;17.982;2023-06-26T04:04:32;9.00;;;6.30;;
77012;SDS011;67260;53.130;17.982;2023-06-26T04:06:59;8.50;;;6.00;;
77012;SDS011;67260;53.130;17.982;2023-06-26T04:09:26;9.20;;;6.60;;
77012;SDS011;67260;53.130;17.982;2023-06-26T04:11:53;9.50;;;6.20;;
77012;SDS011;67260;53.130;17.982;2023-06-26T04:14:19;7.70;;;5.60;;
77012;SDS011;67260;53.130;17.982;2023-06-26T04:16:46;10.80;;;5.30;;
77012;SDS011;67260;53.130;17.982;2023-06-26T04:19:13;7.30;;;5.20;;
77012;SDS011;67260;53.130;17.982;2023-06-26T04:21:39;7.60;;;5.20;;
77012;SDS011;67260;53.130;17.982;2023-06-26T04:24:06;8.40;;;5.60;;
77012;SDS011;67260;53.130;17.982;2023-06-26T04:26:33;8.60;;;5.90;;
77012;SDS011;67260;53.130;17.982;2023-06-26T04:29:00;8.30;;;5.40;;
77012;SDS011;67260;53.130;17.982;2023-06-26T04:31:26;9.30;;;5.60;;
77012;SDS011;67260;53.130;17.982;2023-06-26T04:33:53;8.40;;;5.40;;
77012;SDS011;67260;53.130;17.982;2023-06-26T04:36:21;7.60;;;5.30;;
77012;SDS011;67260;53.130;17.982;2023-06-26T04:38:47;8.40;;;5.30;;
77012;SDS011;67260;53.130;17.982;2023-06-26T04:41:15;7.60;;;5.20;;
77012;SDS011;67260;53.130;17.982;2023-06-26T04:43:42;10.40;;;6.40;;
77012;SDS011;67260;53.130;17.982;2023-06-26T04:46:09;8.20;;;6.00;;
77012;SDS011;67260;53.130;17.982;2023-06-26T04:48:35;8.80;;;5.90;;
77012;SDS011;67260;53.130;17.982;2023-06-26T04:51:02;10.60;;;6.10;;
77012;SDS011;67260;53.130;17.982;2023-06-26T04:53:29;11.10;;;5.90;;
77012;SDS011;67260;53.130;17.982;2023-06-26T04:55:55;8.50;;;5.60;;
77012;SDS011;67260;53.130;17.982;2023-06-26T04:58:22;8.00;;;5.50;;
77012;SDS011;67260;53.130;17.982;2023-06-26T05:00:49;11.40;;;6.90;;
77012;SDS011;67260;53.130;17.982;2023-06-26T05:03:16;10.40;;;6.00;;
77012;SDS011;67260;53.130;17.982;2023-06-26T05:05:44;8.30;;;5.70;;
77012;SDS011;67260;53.130;17.982;2023-06-26T05:08:18;7.10;;;5.60;;
77012;SDS011;67260;53.130;17.982;2023-06-26T05:10:47;8.10;;;5.90;;
77012;SDS011;67260;53.130;17.982;2023-06-26T05:13:14;8.80;;;6.10;;
77012;SDS011;67260;53.130;17.982;2023-06-26T05:15:46;7.80;;;5.80;;
77012;SDS011;67260;53.130;17.982;2023-06-26T05:18:13;10.00;;;5.90;;
77012;SDS011;67260;53.130;17.982;2023-06-26T05:20:40;7.00;;;5.50;;
77012;SDS011;67260;53.130;17.982;2023-06-26T05:23:07;9.90;;;5.30;;
77012;SDS011;67260;53.130;17.982;2023-06-26T05:25:34;10.50;;;5.60;;
77012;SDS011;67260;53.130;17.982;2023-06-26T05:28:01;7.40;;;5.30;;
77012;SDS011;67260;53.130;17.982;2023-06-26T05:30:31;11.10;;;6.00;;
77012;SDS011;67260;53.130;17.982;2023-06-26T05:33:00;8.70;;;5.50;;
77012;SDS011;67260;53.130;17.982;2023-06-26T05:35:28;7.40;;;4.70;;
77012;SDS011;67260;53.130;17.982;2023-06-26T05:37:57;7.90;;;5.50;;
77012;SDS011;67260;53.130;17.982;2023-06-26T05:40:25;7.30;;;5.00;;
77012;SDS011;67260;53.130;17.982;2023-06-26T05:42:52;8.20;;;5.30;;
77012;SDS011;67260;53.130;17.982;2023-06-26T05:45:19;8.50;;;4.90;;
77012;SDS011;67260;53.130;17.982;2023-06-26T05:47:46;7.60;;;4.60;;
77012;SDS011;67260;53.130;17.982;2023-06-26T05:50:13;7.20;;;4.80;;
77012;SDS011;67260;53.130;17.982;2023-06-26T05:52:40;6.80;;;4.60;;
77012;SDS011;67260;53.130;17.982;2023-06-26T05:55:07;7.30;;;4.40;;
77012;SDS011;67260;53.130;17.982;2023-06-26T05:57:34;8.10;;;4.50;;
77012;SDS011;67260;53.130;17.982;2023-06-26T06:00:02;6.80;;;4.10;;
77012;SDS011;67260;53.130;17.982;2023-06-26T06:05:07;8.70;;;4.60;;
77012;SDS011;67260;53.130;17.982;2023-06-26T06:07:35;11.90;;;4.70;;
77012;SDS011;67260;53.130;17.982;2023-06-26T06:10:02;8.40;;;4.40;;
77012;SDS011;67260;53.130;17.982;2023-06-26T06:12:30;8.00;;;4.60;;
77012;SDS011;67260;53.130;17.982;2023-06-26T06:14:57;6.70;;;4.50;;
77012;SDS011;67260;53.130;17.982;2023-06-26T06:17:23;7.00;;;4.40;;
77012;SDS011;67260;53.130;17.982;2023-06-26T06:19:50;8.00;;;4.30;;
77012;SDS011;67260;53.130;17.982;2023-06-26T06:22:17;6.20;;;4.30;;
77012;SDS011;67260;53.130;17.982;2023-06-26T06:24:44;9.00;;;4.30;;
77012;SDS011;67260;53.130;17.982;2023-06-26T06:27:11;7.90;;;4.40;;
77012;SDS011;67260;53.130;17.982;2023-06-26T06:29:38;6.50;;;4.20;;
77012;SDS011;67260;53.130;17.982;2023-06-26T06:32:04;7.50;;;4.80;;
77012;SDS011;67260;53.130;17.982;2023-06-26T06:34:31;7.10;;;4.00;;
77012;SDS011;67260;53.130;17.982;2023-06-26T06:36:58;6.00;;;4.60;;
77012;SDS011;67260;53.130;17.982;2023-06-26T06:39:24;8.80;;;4.90;;
77012;SDS011;67260;53.130;17.982;2023-06-26T06:41:51;8.00;;;4.10;;
77012;SDS011;67260;53.130;17.982;2023-06-26T06:44:18;6.30;;;4.00;;
77012;SDS011;67260;53.130;17.982;2023-06-26T06:46:45;6.40;;;4.90;;
77012;SDS011;67260;53.130;17.982;2023-06-26T06:49:11;7.70;;;4.50;;
77012;SDS011;67260;53.130;17.982;2023-06-26T06:51:38;5.90;;;4.20;;
77012;SDS011;67260;53.130;17.982;2023-06-26T06:54:05;8.90;;;4.70;;
77012;SDS011;67260;53.130;17.982;2023-06-26T06:56:32;7.30;;;5.10;;
77012;SDS011;67260;53.130;17.982;2023-06-26T06:58:58;7.60;;;5.20;;
77012;SDS011;67260;53.130;17.982;2023-06-26T07:01:25;6.70;;;4.90;;
77012;SDS011;67260;53.130;17.982;2023-06-26T07:03:52;7.80;;;5.10;;
77012;SDS011;67260;53.130;17.982;2023-06-26T07:06:19;8.10;;;5.20;;
77012;SDS011;67260;53.130;17.982;2023-06-26T07:08:46;8.50;;;5.30;;
77012;SDS011;67260;53.130;17.982;2023-06-26T07:11:13;9.90;;;5.30;;
77012;SDS011;67260;53.130;17.982;2023-06-26T07:13:39;9.40;;;5.60;;
77012;SDS011;67260;53.130;17.982;2023-06-26T07:16:06;5.70;;;4.40;;
77012;SDS011;67260;53.130;17.982;2023-06-26T07:18:32;7.50;;;4.30;;
77012;SDS011;67260;53.130;17.982;2023-06-26T07:20:59;7.90;;;4.60;;
77012;SDS011;67260;53.130;17.982;2023-06-26T07:23:26;7.10;;;5.20;;
77012;SDS011;67260;53.130;17.982;2023-06-26T07:25:53;6.30;;;4.60;;
77012;SDS011;67260;53.130;17.982;2023-06-26T07:28:20;9.10;;;4.80;;
77012;SDS011;67260;53.130;17.982;2023-06-26T07:30:46;8.20;;;4.00;;
77012;SDS011;67260;53.130;17.982;2023-06-26T07:33:13;7.50;;;3.80;;
77012;SDS011;67260;53.130;17.982;2023-06-26T07:35:40;9.50;;;4.30;;
77012;SDS011;67260;53.130;17.982;2023-06-26T07:38:07;6.50;;;3.90;;
77012;SDS011;67260;53.130;17.982;2023-06-26T07:40:33;6.60;;;3.80;;
77012;SDS011;67260;53.130;17.982;2023-06-26T07:43:00;7.30;;;4.40;;
77012;SDS011;67260;53.130;17.982;2023-06-26T07:45:27;8.10;;;4.20;;
77012;SDS011;67260;53.130;17.982;2023-06-26T07:47:54;8.30;;;3.80;;
77012;SDS011;67260;53.130;17.982;2023-06-26T07:50:21;7.60;;;4.00;;
77012;SDS011;67260;53.130;17.982;2023-06-26T07:52:49;8.10;;;4.70;;
77012;SDS011;67260;53.130;17.982;2023-06-26T07:55:16;6.50;;;4.30;;
77012;SDS011;67260;53.130;17.982;2023-06-26T07:57:43;5.30;;;3.80;;
77012;SDS011;67260;53.130;17.982;2023-06-26T08:00:12;7.00;;;3.90;;
77012;SDS011;67260;53.130;17.982;2023-06-26T08:02:41;4.70;;;3.50;;
77012;SDS011;67260;53.130;17.982;2023-06-26T08:05:08;5.90;;;3.80;;
77012;SDS011;67260;53.130;17.982;2023-06-26T08:07:35;6.40;;;3.80;;
77012;SDS011;67260;53.130;17.982;2023-06-26T08:10:01;4.80;;;3.60;;
77012;SDS011;67260;53.130;17.982;2023-06-26T08:12:29;7.80;;;3.90;;
77012;SDS011;67260;53.130;17.982;2023-06-26T08:14:55;5.10;;;3.40;;
77012;SDS011;67260;53.130;17.982;2023-06-26T08:17:22;6.40;;;3.70;;
77012;SDS011;67260;53.130;17.982;2023-06-26T08:19:49;6.00;;;3.60;;
77012;SDS011;67260;53.130;17.982;2023-06-26T08:22:16;5.70;;;3.70;;
77012;SDS011;67260;53.130;17.982;2023-06-26T08:24:42;5.90;;;3.80;;
77012;SDS011;67260;53.130;17.982;2023-06-26T08:27:09;7.80;;;4.00;;
77012;SDS011;67260;53.130;17.982;2023-06-26T08:29:36;8.50;;;4.20;;
77012;SDS011;67260;53.130;17.982;2023-06-26T08:32:02;5.60;;;4.00;;
77012;SDS011;67260;53.130;17.982;2023-06-26T08:34:29;9.10;;;3.80;;
77012;SDS011;67260;53.130;17.982;2023-06-26T08:36:56;6.90;;;3.90;;
77012;SDS011;67260;53.130;17.982;2023-06-26T08:39:22;9.00;;;3.70;;
77012;SDS011;67260;53.130;17.982;2023-06-26T08:41:49;5.50;;;4.00;;
77012;SDS011;67260;53.130;17.982;2023-06-26T08:44:16;5.70;;;3.80;;
77012;SDS011;67260;53.130;17.982;2023-06-26T08:46:42;5.70;;;3.60;;
77012;SDS011;67260;53.130;17.982;2023-06-26T08:49:14;8.50;;;4.20;;
77012;SDS011;67260;53.130;17.982;2023-06-26T08:51:47;6.20;;;3.90;;
77012;SDS011;67260;53.130;17.982;2023-06-26T08:54:20;6.10;;;3.90;;
77012;SDS011;67260;53.130;17.982;2023-06-26T08:56:55;5.90;;;4.10;;
77012;SDS011;67260;53.130;17.982;2023-06-26T08:59:24;4.90;;;3.70;;
77012;SDS011;67260;53.130;17.982;2023-06-26T09:01:52;4.80;;;3.60;;
77012;SDS011;67260;53.130;17.982;2023-06-26T09:04:19;7.00;;;4.00;;
77012;SDS011;67260;53.130;17.982;2023-06-26T09:06:46;8.40;;;4.00;;
77012;SDS011;67260;53.130;17.982;2023-06-26T09:09:12;5.80;;;3.90;;
77012;SDS011;67260;53.130;17.982;2023-06-26T09:11:39;7.40;;;3.70;;
77012;SDS011;67260;53.130;17.982;2023-06-26T09:14:06;6.80;;;3.90;;
77012;SDS011;67260;53.130;17.982;2023-06-26T09:16:39;6.90;;;3.30;;
77012;SDS011;67260;53.130;17.982;2023-06-26T09:19:09;7.90;;;3.50;;
77012;SDS011;67260;53.130;17.982;2023-06-26T09:21:38;4.40;;;3.10;;
77012;SDS011;67260;53.130;17.982;2023-06-26T09:24:10;6.40;;;3.40;;
77012;SDS011;67260;53.130;17.982;2023-06-26T09:26:37;8.00;;;3.40;;
77012;SDS011;67260;53.130;17.982;2023-06-26T09:29:05;5.50;;;3.50;;
77012;SDS011;67260;53.130;17.982;2023-06-26T09:31:33;5.20;;;3.40;;
77012;SDS011;67260;53.130;17.982;2023-06-26T09:34:02;5.90;;;3.60;;
77012;SDS011;67260;53.130;17.982;2023-06-26T09:36:29;6.80;;;3.30;;
77012;SDS011;67260;53.130;17.982;2023-06-26T09:39:01;7.10;;;3.30;;
77012;SDS011;67260;53.130;17.982;2023-06-26T09:41:31;4.90;;;3.00;;
77012;SDS011;67260;53.130;17.982;2023-06-26T09:44:00;5.30;;;3.30;;
77012;SDS011;67260;53.130;17.982;2023-06-26T09:46:30;5.70;;;3.40;;
77012;SDS011;67260;53.130;17.982;2023-06-26T09:49:03;4.30;;;3.60;;
77012;SDS011;67260;53.130;17.982;2023-06-26T09:51:39;6.10;;;3.70;;
77012;SDS011;67260;53.130;17.982;2023-06-26T09:54:07;8.00;;;3.80;;
77012;SDS011;67260;53.130;17.982;2023-06-26T09:56:34;8.10;;;3.80;;
77012;SDS011;67260;53.130;17.982;2023-06-26T09:59:02;5.90;;;3.70;;
77012;SDS011;67260;53.130;17.982;2023-06-26T10:01:31;5.80;;;3.50;;
77012;SDS011;67260;53.130;17.982;2023-06-26T10:03:58;7.50;;;3.70;;
77012;SDS011;67260;53.130;17.982;2023-06-26T10:06:33;6.20;;;3.70;;
77012;SDS011;67260;53.130;17.982;2023-06-26T10:09:02;5.90;;;3.40;;
77012;SDS011;67260;53.130;17.982;2023-06-26T10:11:33;7.40;;;3.30;;
77012;SDS011;67260;53.130;17.982;2023-06-26T10:14:04;6.50;;;4.00;;
77012;SDS011;67260;53.130;17.982;2023-06-26T10:16:33;5.80;;;3.40;;
77012;SDS011;67260;53.130;17.982;2023-06-26T10:19:04;7.80;;;3.70;;
77012;SDS011;67260;53.130;17.982;2023-06-26T10:21:34;5.90;;;4.00;;
77012;SDS011;67260;53.130;17.982;2023-06-26T10:24:05;6.10;;;4.00;;
77012;SDS011;67260;53.130;17.982;2023-06-26T10:26:33;5.20;;;3.70;;
77012;SDS011;67260;53.130;17.982;2023-06-26T10:29:04;7.10;;;3.70;;
77012;SDS011;67260;53.130;17.982;2023-06-26T10:31:32;6.50;;;3.90;;
77012;SDS011;67260;53.130;17.982;2023-06-26T10:34:00;6.10;;;4.00;;
77012;SDS011;67260;53.130;17.982;2023-06-26T10:36:28;6.70;;;4.00;;
77012;SDS011;67260;53.130;17.982;2023-06-26T10:39:02;7.40;;;4.20;;
77012;SDS011;67260;53.130;17.982;2023-06-26T10:41:37;6.40;;;4.10;;
77012;SDS011;67260;53.130;17.982;2023-06-26T10:44:06;7.30;;;4.00;;
77012;SDS011;67260;53.130;17.982;2023-06-26T10:46:55;6.00;;;3.80;;
77012;SDS011;67260;53.130;17.982;2023-06-26T10:49:28;6.30;;;4.30;;
77012;SDS011;67260;53.130;17.982;2023-06-26T10:51:55;7.60;;;4.30;;
77012;SDS011;67260;53.130;17.982;2023-06-26T10:54:31;6.20;;;4.10;;
77012;SDS011;67260;53.130;17.982;2023-06-26T10:56:58;8.70;;;4.40;;
77012;SDS011;67260;53.130;17.982;2023-06-26T10:59:26;7.90;;;4.10;;
77012;SDS011;67260;53.130;17.982;2023-06-26T11:02:00;5.20;;;3.90;;
77012;SDS011;67260;53.130;17.982;2023-06-26T11:07:20;6.10;;;4.10;;
77012;SDS011;67260;53.130;17.982;2023-06-26T11:09:55;6.50;;;4.00;;
77012;SDS011;67260;53.130;17.982;2023-06-26T11:12:38;7.90;;;4.10;;
77012;SDS011;67260;53.130;17.982;2023-06-26T11:15:11;6.10;;;4.20;;
77012;SDS011;67260;53.130;17.982;2023-06-26T11:17:42;5.40;;;3.90;;
77012;SDS011;67260;53.130;17.982;2023-06-26T11:20:11;6.40;;;4.00;;
77012;SDS011;67260;53.130;17.982;2023-06-26T11:22:40;6.70;;;4.20;;
77012;SDS011;67260;53.130;17.982;2023-06-26T11:25:08;6.30;;;3.90;;
77012;SDS011;67260;53.130;17.982;2023-06-26T11:27:41;5.90;;;4.50;;
77012;SDS011;67260;53.130;17.982;2023-06-26T11:30:09;7.40;;;4.30;;
77012;SDS011;67260;53.130;17.982;2023-06-26T11:32:38;5.80;;;4.20;;
77012;SDS011;67260;53.130;17.982;2023-06-26T11:35:05;6.20;;;3.90;;
77012;SDS011;67260;53.130;17.982;2023-06-26T11:37:32;5.00;;;4.10;;
77012;SDS011;67260;53.130;17.982;2023-06-26T11:40:15;5.70;;;4.00;;
77012;SDS011;67260;53.130;17.982;2023-06-26T11:42:42;6.20;;;4.20;;
77012;SDS011;67260;53.130;17.982;2023-06-26T11:45:10;7.00;;;4.10;;
77012;SDS011;67260;53.130;17.982;2023-06-26T11:47:37;7.60;;;3.40;;
77012;SDS011;67260;53.130;17.982;2023-06-26T11:50:05;5.50;;;3.90;;
77012;SDS011;67260;53.130;17.982;2023-06-26T11:52:33;23.90;;;6.40;;
77012;SDS011;67260;53.130;17.982;2023-06-26T11:54:59;14.70;;;5.20;;
77012;SDS011;67260;53.130;17.982;2023-06-26T11:57:26;5.80;;;4.00;;
77012;SDS011;67260;53.130;17.982;2023-06-26T11:59:53;8.60;;;4.30;;
77012;SDS011;67260;53.130;17.982;2023-06-26T12:02:20;6.60;;;3.80;;
77012;SDS011;67260;53.130;17.982;2023-06-26T12:04:47;6.90;;;4.00;;
77012;SDS011;67260;53.130;17.982;2023-06-26T12:07:15;5.80;;;4.00;;
77012;SDS011;67260;53.130;17.982;2023-06-26T12:09:44;7.50;;;4.20;;
77012;SDS011;67260;53.130;17.982;2023-06-26T12:12:15;6.50;;;3.70;;
77012;SDS011;67260;53.130;17.982;2023-06-26T12:14:44;7.10;;;3.90;;
77012;SDS011;67260;53.130;17.982;2023-06-26T12:17:12;5.90;;;3.70;;
77012;SDS011;67260;53.130;17.982;2023-06-26T12:19:43;6.90;;;3.40;;
77012;SDS011;67260;53.130;17.982;2023-06-26T12:22:10;5.50;;;3.50;;
77012;SDS011;67260;53.130;17.982;2023-06-26T12:24:38;5.10;;;3.50;;
77012;SDS011;67260;53.130;17.982;2023-06-26T12:27:09;5.00;;;3.30;;
77012;SDS011;67260;53.130;17.982;2023-06-26T12:29:37;7.40;;;3.20;;
77012;SDS011;67260;53.130;17.982;2023-06-26T12:32:09;7.10;;;3.30;;
77012;SDS011;67260;53.130;17.982;2023-06-26T12:34:37;8.10;;;3.80;;
77012;SDS011;67260;53.130;17.982;2023-06-26T12:37:06;8.10;;;3.60;;
77012;SDS011;67260;53.130;17.982;2023-06-26T12:39:48;6.60;;;3.40;;
77012;SDS011;67260;53.130;17.982;2023-06-26T12:42:16;5.00;;;3.40;;
77012;SDS011;67260;53.130;17.982;2023-06-26T12:44:53;7.10;;;3.50;;
77012;SDS011;67260;53.130;17.982;2023-06-26T12:47:24;6.60;;;3.30;;
77012;SDS011;67260;53.130;17.982;2023-06-26T12:49:53;5.20;;;3.20;;
77012;SDS011;67260;53.130;17.982;2023-06-26T12:52:20;6.50;;;3.00;;
77012;SDS011;67260;53.130;17.982;2023-06-26T12:54:51;7.10;;;3.60;;
77012;SDS011;67260;53.130;17.982;2023-06-26T12:57:19;5.20;;;3.50;;
77012;SDS011;67260;53.130;17.982;2023-06-26T12:59:45;7.40;;;3.80;;
77012;SDS011;67260;53.130;17.982;2023-06-26T13:02:12;6.50;;;3.40;;
77012;SDS011;67260;53.130;17.982;2023-06-26T13:04:40;4.70;;;3.10;;
77012;SDS011;67260;53.130;17.982;2023-06-26T13:07:07;5.00;;;3.20;;
77012;SDS011;67260;53.130;17.982;2023-06-26T13:09:34;4.90;;;3.20;;
77012;SDS011;67260;53.130;17.982;2023-06-26T13:12:03;13.80;;;3.80;;
77012;SDS011;67260;53.130;17.982;2023-06-26T13:14:31;8.70;;;3.30;;
77012;SDS011;67260;53.130;17.982;2023-06-26T13:16:58;6.60;;;3.90;;
77012;SDS011;67260;53.130;17.982;2023-06-26T13:19:24;4.60;;;3.20;;
77012;SDS011;67260;53.130;17.982;2023-06-26T13:21:52;6.70;;;3.20;;
77012;SDS011;67260;53.130;17.982;2023-06-26T13:24:18;4.60;;;3.30;;
77012;SDS011;67260;53.130;17.982;2023-06-26T13:26:45;5.80;;;3.60;;
77012;SDS011;67260;53.130;17.982;2023-06-26T13:29:12;6.80;;;3.70;;
77012;SDS011;67260;53.130;17.982;2023-06-26T13:31:38;8.50;;;4.00;;
77012;SDS011;67260;53.130;17.982;2023-06-26T13:34:05;6.30;;;3.90;;
77012;SDS011;67260;53.130;17.982;2023-06-26T13:36:32;6.20;;;3.60;;
77012;SDS011;67260;53.130;17.982;2023-06-26T13:39:02;4.60;;;3.30;;
77012;SDS011;67260;53.130;17.982;2023-06-26T13:41:29;5.00;;;3.40;;
77012;SDS011;67260;53.130;17.982;2023-06-26T13:43:56;6.40;;;3.20;;
77012;SDS011;67260;53.130;17.982;2023-06-26T13:46:23;5.30;;;2.60;;
77012;SDS011;67260;53.130;17.982;2023-06-26T13:48:50;8.40;;;3.50;;
77012;SDS011;67260;53.130;17.982;2023-06-26T13:51:20;7.80;;;3.50;;
77012;SDS011;67260;53.130;17.982;2023-06-26T13:53:47;8.40;;;3.60;;
77012;SDS011;67260;53.130;17.982;2023-06-26T13:56:14;5.20;;;3.70;;
77012;SDS011;67260;53.130;17.982;2023-06-26T13:58:40;7.00;;;3.30;;
77012;SDS011;67260;53.130;17.982;2023-06-26T14:01:07;7.10;;;3.40;;
77012;SDS011;67260;53.130;17.982;2023-06-26T14:03:34;4.70;;;3.20;;
77012;SDS011;67260;53.130;17.982;2023-06-26T14:06:01;6.30;;;3.40;;
77012;SDS011;67260;53.130;17.982;2023-06-26T14:08:32;7.10;;;3.40;;
77012;SDS011;67260;53.130;17.982;2023-06-26T14:10:59;6.50;;;3.10;;
77012;SDS011;67260;53.130;17.982;2023-06-26T14:13:27;5.00;;;3.30;;
77012;SDS011;67260;53.130;17.982;2023-06-26T14:15:54;6.60;;;2.90;;
77012;SDS011;67260;53.130;17.982;2023-06-26T14:18:22;4.60;;;2.80;;
77012;SDS011;67260;53.130;17.982;2023-06-26T14:20:50;5.90;;;3.40;;
77012;SDS011;67260;53.130;17.982;2023-06-26T14:23:16;5.80;;;2.80;;
77012;SDS011;67260;53.130;17.982;2023-06-26T14:25:43;6.70;;;3.10;;
77012;SDS011;67260;53.130;17.982;2023-06-26T14:28:11;5.20;;;2.70;;
77012;SDS011;67260;53.130;17.982;2023-06-26T14:30:37;6.10;;;2.70;;
77012;SDS011;67260;53.130;17.982;2023-06-26T14:33:04;7.30;;;3.30;;
77012;SDS011;67260;53.130;17.982;2023-06-26T14:35:31;7.70;;;2.90;;
77012;SDS011;67260;53.130;17.982;2023-06-26T14:37:58;12.00;;;4.00;;
77012;SDS011;67260;53.130;17.982;2023-06-26T14:40:25;7.10;;;3.40;;
77012;SDS011;67260;53.130;17.982;2023-06-26T14:42:51;5.50;;;3.10;;
77012;SDS011;67260;53.130;17.982;2023-06-26T14:45:19;5.80;;;3.00;;
77012;SDS011;67260;53.130;17.982;2023-06-26T14:47:47;3.50;;;2.40;;